sensor_id;sensor_type;location;lat;lon;timestamp;temperature;humidity
43987;DHT22;29650;47.378;8.300;2022-08-20T00:01:36;17.00;99.90
43987;DHT22;29650;47.378;8.300;2022-08-20T00:04:03;17.00;99.90
43987;DHT22;29650;47.378;8.300;2022-08-20T00:06:30;17.00;99.90
43987;DHT22;29650;47.378;8.300;2022-08-20T00:08:59;17.00;99.90
43987;DHT22;29650;47.378;8.300;2022-08-20T00:11:26;17.00;99.90
43987;DHT22;29650;47.378;8.300;2022-08-20T00:13:55;16.90;99.90
43987;DHT22;29650;47.378;8.300;2022-08-20T00:16:23;16.90;99.90
43987;DHT22;29650;47.378;8.300;2022-08-20T00:18:51;17.00;99.90
43987;DHT22;29650;47.378;8.300;2022-08-20T00:21:18;17.10;99.90
43987;DHT22;29650;47.378;8.300;2022-08-20T00:23:46;17.10;99.90
43987;DHT22;29650;47.378;8.300;2022-08-20T00:26:15;17.20;99.90
43987;DHT22;29650;47.378;8.300;2022-08-20T00:28:42;17.00;99.90
43987;DHT22;29650;47.378;8.300;2022-08-20T00:31:10;17.00;99.90
43987;DHT22;29650;47.378;8.300;2022-08-20T00:33:37;17.10;99.90
43987;DHT22;29650;47.378;8.300;2022-08-20T00:36:04;17.00;99.90
43987;DHT22;29650;47.378;8.300;2022-08-20T00:38:34;17.00;99.90
43987;DHT22;29650;47.378;8.300;2022-08-20T00:41:01;17.00;99.90
43987;DHT22;29650;47.378;8.300;2022-08-20T00:43:36;17.00;99.90
43987;DHT22;29650;47.378;8.300;2022-08-20T00:46:04;17.00;99.90
43987;DHT22;29650;47.378;8.300;2022-08-20T00:48:32;17.00;99.90
43987;DHT22;29650;47.378;8.300;2022-08-20T00:51:00;16.90;99.90
43987;DHT22;29650;47.378;8.300;2022-08-20T00:53:28;16.90;99.90
43987;DHT22;29650;47.378;8.300;2022-08-20T00:55:55;17.10;99.90
43987;DHT22;29650;47.378;8.300;2022-08-20T00:58:22;16.90;99.90
43987;DHT22;29650;47.378;8.300;2022-08-20T01:00:51;16.60;99.90
43987;DHT22;29650;47.378;8.300;2022-08-20T01:03:18;16.70;99.90
43987;DHT22;29650;47.378;8.300;2022-08-20T01:05:46;16.80;99.90
43987;DHT22;29650;47.378;8.300;2022-08-20T01:08:13;16.80;99.90
43987;DHT22;29650;47.378;8.300;2022-08-20T01:10:41;16.70;99.90
43987;DHT22;29650;47.378;8.300;2022-08-20T01:13:10;16.70;99.90
43987;DHT22;29650;47.378;8.300;2022-08-20T01:15:38;16.60;99.90
43987;DHT22;29650;47.378;8.300;2022-08-20T01:18:09;16.60;99.90
43987;DHT22;29650;47.378;8.300;2022-08-20T01:20:37;16.60;99.90
43987;DHT22;29650;47.378;8.300;2022-08-20T01:23:06;16.60;99.90
43987;DHT22;29650;47.378;8.300;2022-08-20T01:25:57;16.80;99.90
43987;DHT22;29650;47.378;8.300;2022-08-20T01:28:29;16.70;99.90
43987;DHT22;29650;47.378;8.300;2022-08-20T01:30:56;16.70;99.90
43987;DHT22;29650;47.378;8.300;2022-08-20T01:33:23;16.70;99.90
43987;DHT22;29650;47.378;8.300;2022-08-20T01:35:51;16.70;99.90
43987;DHT22;29650;47.378;8.300;2022-08-20T01:38:17;16.60;99.90
43987;DHT22;29650;47.378;8.300;2022-08-20T01:40:50;16.60;99.90
43987;DHT22;29650;47.378;8.300;2022-08-20T01:43:19;16.60;99.90
43987;DHT22;29650;47.378;8.300;2022-08-20T01:45:48;16.50;99.90
43987;DHT22;29650;47.378;8.300;2022-08-20T01:48:15;16.50;99.90
43987;DHT22;29650;47.378;8.300;2022-08-20T01:50:43;16.60;99.90
43987;DHT22;29650;47.378;8.300;2022-08-20T01:53:14;16.70;99.90
43987;DHT22;29650;47.378;8.300;2022-08-20T01:55:42;16.70;99.90
43987;DHT22;29650;47.378;8.300;2022-08-20T01:58:09;16.60;99.90
43987;DHT22;29650;47.378;8.300;2022-08-20T02:00:37;16.60;99.90
43987;DHT22;29650;47.378;8.300;2022-08-20T02:03:04;16.50;99.90
43987;DHT22;29650;47.378;8.300;2022-08-20T02:05:32;16.50;99.90
43987;DHT22;29650;47.378;8.300;2022-08-20T02:07:59;16.50;99.90
43987;DHT22;29650;47.378;8.300;2022-08-20T02:10:26;16.40;99.90
43987;DHT22;29650;47.378;8.300;2022-08-20T02:12:53;16.40;99.90
43987;DHT22;29650;47.378;8.300;2022-08-20T02:15:20;16.50;99.90
43987;DHT22;29650;47.378;8.300;2022-08-20T02:17:48;16.40;99.90
43987;DHT22;29650;47.378;8.300;2022-08-20T02:20:15;16.50;99.90
43987;DHT22;29650;47.378;8.300;2022-08-20T02:22:43;16.40;99.90
43987;DHT22;29650;47.378;8.300;2022-08-20T02:25:12;16.50;99.90
43987;DHT22;29650;47.378;8.300;2022-08-20T02:27:40;16.60;99.90
43987;DHT22;29650;47.378;8.300;2022-08-20T02:30:10;16.60;99.90
43987;DHT22;29650;47.378;8.300;2022-08-20T02:32:37;16.70;99.90
43987;DHT22;29650;47.378;8.300;2022-08-20T02:35:06;16.70;99.90
43987;DHT22;29650;47.378;8.300;2022-08-20T02:37:34;16.80;99.90
43987;DHT22;29650;47.378;8.300;2022-08-20T02:40:02;16.70;99.90
43987;DHT22;29650;47.378;8.300;2022-08-20T02:42:29;16.70;99.90
43987;DHT22;29650;47.378;8.300;2022-08-20T02:44:56;16.60;99.90
43987;DHT22;29650;47.378;8.300;2022-08-20T02:47:23;16.60;99.90
43987;DHT22;29650;47.378;8.300;2022-08-20T02:49:51;16.60;99.90
43987;DHT22;29650;47.378;8.300;2022-08-20T02:52:20;16.60;99.90
43987;DHT22;29650;47.378;8.300;2022-08-20T02:54:46;16.70;99.90
43987;DHT22;29650;47.378;8.300;2022-08-20T02:57:16;16.60;99.90
43987;DHT22;29650;47.378;8.300;2022-08-20T02:59:44;16.70;99.90
43987;DHT22;29650;47.378;8.300;2022-08-20T03:02:11;16.70;99.90
43987;DHT22;29650;47.378;8.300;2022-08-20T03:04:38;16.80;99.90
43987;DHT22;29650;47.378;8.300;2022-08-20T03:07:05;16.70;99.90
43987;DHT22;29650;47.378;8.300;2022-08-20T03:09:33;16.60;99.90
43987;DHT22;29650;47.378;8.300;2022-08-20T03:11:59;16.60;99.90
43987;DHT22;29650;47.378;8.300;2022-08-20T03:14:27;16.70;99.90
43987;DHT22;29650;47.378;8.300;2022-08-20T03:16:53;16.70;99.90
43987;DHT22;29650;47.378;8.300;2022-08-20T03:19:20;16.80;99.90
43987;DHT22;29650;47.378;8.300;2022-08-20T03:21:47;16.80;99.90
43987;DHT22;29650;47.378;8.300;2022-08-20T03:24:14;16.80;99.90
43987;DHT22;29650;47.378;8.300;2022-08-20T03:26:42;16.80;99.90
43987;DHT22;29650;47.378;8.300;2022-08-20T03:29:09;16.80;99.90
43987;DHT22;29650;47.378;8.300;2022-08-20T03:31:36;16.70;99.90
43987;DHT22;29650;47.378;8.300;2022-08-20T03:34:03;16.60;99.90
43987;DHT22;29650;47.378;8.300;2022-08-20T03:36:29;16.70;99.90
43987;DHT22;29650;47.378;8.300;2022-08-20T03:38:56;16.70;99.90
43987;DHT22;29650;47.378;8.300;2022-08-20T03:41:23;16.60;99.90
43987;DHT22;29650;47.378;8.300;2022-08-20T03:43:51;16.60;99.90
43987;DHT22;29650;47.378;8.300;2022-08-20T03:46:19;16.60;99.90
43987;DHT22;29650;47.378;8.300;2022-08-20T03:48:45;16.60;99.90
43987;DHT22;29650;47.378;8.300;2022-08-20T03:51:12;16.70;99.90
43987;DHT22;29650;47.378;8.300;2022-08-20T03:53:39;16.70;99.90
43987;DHT22;29650;47.378;8.300;2022-08-20T03:56:06;16.80;99.90
43987;DHT22;29650;47.378;8.300;2022-08-20T03:58:33;16.80;99.90
43987;DHT22;29650;47.378;8.300;2022-08-20T04:01:01;16.80;99.90
43987;DHT22;29650;47.378;8.300;2022-08-20T04:03:28;16.90;99.90
43987;DHT22;29650;47.378;8.300;2022-08-20T04:05:54;16.90;99.90
43987;DHT22;29650;47.378;8.300;2022-08-20T04:08:22;16.90;99.90
43987;DHT22;29650;47.378;8.300;2022-08-20T04:10:51;16.90;99.90
43987;DHT22;29650;47.378;8.300;2022-08-20T04:13:18;16.90;99.90
43987;DHT22;29650;47.378;8.300;2022-08-20T04:15:45;17.00;99.90
43987;DHT22;29650;47.378;8.300;2022-08-20T04:18:14;17.00;99.90
43987;DHT22;29650;47.378;8.300;2022-08-20T04:20:44;17.10;99.90
43987;DHT22;29650;47.378;8.300;2022-08-20T04:23:11;17.00;99.90
43987;DHT22;29650;47.378;8.300;2022-08-20T04:25:39;17.10;99.90
43987;DHT22;29650;47.378;8.300;2022-08-20T04:28:07;17.10;99.90
43987;DHT22;29650;47.378;8.300;2022-08-20T04:30:36;17.10;99.90
43987;DHT22;29650;47.378;8.300;2022-08-20T04:33:02;17.10;99.90
43987;DHT22;29650;47.378;8.300;2022-08-20T04:35:31;17.10;99.90
43987;DHT22;29650;47.378;8.300;2022-08-20T04:37:58;17.00;99.90
43987;DHT22;29650;47.378;8.300;2022-08-20T04:40:25;16.90;99.90
43987;DHT22;29650;47.378;8.300;2022-08-20T04:43:10;16.70;99.90
43987;DHT22;29650;47.378;8.300;2022-08-20T04:45:36;16.70;99.90
43987;DHT22;29650;47.378;8.300;2022-08-20T04:48:03;16.80;99.90
43987;DHT22;29650;47.378;8.300;2022-08-20T04:50:33;16.90;99.90
43987;DHT22;29650;47.378;8.300;2022-08-20T04:53:00;16.90;99.90
43987;DHT22;29650;47.378;8.300;2022-08-20T04:55:28;17.00;99.90
43987;DHT22;29650;47.378;8.300;2022-08-20T04:57:55;17.00;99.90
43987;DHT22;29650;47.378;8.300;2022-08-20T05:00:23;17.00;99.90
43987;DHT22;29650;47.378;8.300;2022-08-20T05:02:50;17.00;99.90
43987;DHT22;29650;47.378;8.300;2022-08-20T05:05:17;17.10;99.90
43987;DHT22;29650;47.378;8.300;2022-08-20T05:07:46;17.00;99.90
43987;DHT22;29650;47.378;8.300;2022-08-20T05:10:14;17.10;99.90
43987;DHT22;29650;47.378;8.300;2022-08-20T05:12:41;17.10;99.90
43987;DHT22;29650;47.378;8.300;2022-08-20T05:15:08;17.10;99.90
43987;DHT22;29650;47.378;8.300;2022-08-20T05:17:35;17.20;99.90
43987;DHT22;29650;47.378;8.300;2022-08-20T05:20:03;17.20;99.90
43987;DHT22;29650;47.378;8.300;2022-08-20T05:22:30;17.10;99.90
43987;DHT22;29650;47.378;8.300;2022-08-20T05:24:59;17.20;99.90
43987;DHT22;29650;47.378;8.300;2022-08-20T05:27:26;17.20;99.90
43987;DHT22;29650;47.378;8.300;2022-08-20T05:29:53;17.20;99.90
43987;DHT22;29650;47.378;8.300;2022-08-20T05:32:20;17.20;99.90
43987;DHT22;29650;47.378;8.300;2022-08-20T05:34:47;17.30;99.90
43987;DHT22;29650;47.378;8.300;2022-08-20T05:37:14;17.40;99.90
43987;DHT22;29650;47.378;8.300;2022-08-20T05:39:41;17.50;99.90
43987;DHT22;29650;47.378;8.300;2022-08-20T05:42:09;17.50;99.90
43987;DHT22;29650;47.378;8.300;2022-08-20T05:44:36;17.50;99.90
43987;DHT22;29650;47.378;8.300;2022-08-20T05:47:03;17.70;99.90
43987;DHT22;29650;47.378;8.300;2022-08-20T05:49:30;17.70;99.90
43987;DHT22;29650;47.378;8.300;2022-08-20T05:51:58;17.90;99.90
43987;DHT22;29650;47.378;8.300;2022-08-20T05:54:24;18.00;99.90
43987;DHT22;29650;47.378;8.300;2022-08-20T05:56:52;17.90;99.90
43987;DHT22;29650;47.378;8.300;2022-08-20T05:59:22;17.90;99.90
43987;DHT22;29650;47.378;8.300;2022-08-20T06:01:49;17.90;99.90
43987;DHT22;29650;47.378;8.300;2022-08-20T06:04:16;17.90;99.90
43987;DHT22;29650;47.378;8.300;2022-08-20T06:06:52;18.00;99.90
43987;DHT22;29650;47.378;8.300;2022-08-20T06:09:21;17.90;99.90
43987;DHT22;29650;47.378;8.300;2022-08-20T06:11:48;18.00;99.90
43987;DHT22;29650;47.378;8.300;2022-08-20T06:14:15;18.10;99.90
43987;DHT22;29650;47.378;8.300;2022-08-20T06:16:43;18.20;99.90
43987;DHT22;29650;47.378;8.300;2022-08-20T06:19:10;18.20;99.90
43987;DHT22;29650;47.378;8.300;2022-08-20T06:21:37;18.30;99.90
43987;DHT22;29650;47.378;8.300;2022-08-20T06:24:04;18.30;99.90
43987;DHT22;29650;47.378;8.300;2022-08-20T06:26:31;18.40;99.90
43987;DHT22;29650;47.378;8.300;2022-08-20T06:28:58;18.40;99.90
43987;DHT22;29650;47.378;8.300;2022-08-20T06:31:25;18.60;99.90
43987;DHT22;29650;47.378;8.300;2022-08-20T06:33:54;18.60;99.90
43987;DHT22;29650;47.378;8.300;2022-08-20T06:36:21;18.60;99.90
43987;DHT22;29650;47.378;8.300;2022-08-20T06:38:47;18.70;99.90
43987;DHT22;29650;47.378;8.300;2022-08-20T06:41:14;18.80;99.90
43987;DHT22;29650;47.378;8.300;2022-08-20T06:43:41;18.80;99.90
43987;DHT22;29650;47.378;8.300;2022-08-20T06:46:08;18.80;99.90
43987;DHT22;29650;47.378;8.300;2022-08-20T06:48:35;18.80;99.90
43987;DHT22;29650;47.378;8.300;2022-08-20T06:51:03;18.80;99.90
43987;DHT22;29650;47.378;8.300;2022-08-20T06:53:30;18.80;99.90
43987;DHT22;29650;47.378;8.300;2022-08-20T06:55:57;18.90;99.90
43987;DHT22;29650;47.378;8.300;2022-08-20T06:58:24;18.90;99.90
43987;DHT22;29650;47.378;8.300;2022-08-20T07:00:51;18.90;99.90
43987;DHT22;29650;47.378;8.300;2022-08-20T07:03:18;18.90;99.90
43987;DHT22;29650;47.378;8.300;2022-08-20T07:05:44;18.90;99.90
43987;DHT22;29650;47.378;8.300;2022-08-20T07:08:13;18.70;99.90
43987;DHT22;29650;47.378;8.300;2022-08-20T07:10:40;18.70;99.90
43987;DHT22;29650;47.378;8.300;2022-08-20T07:13:08;18.90;99.90
43987;DHT22;29650;47.378;8.300;2022-08-20T07:15:35;18.70;99.90
43987;DHT22;29650;47.378;8.300;2022-08-20T07:18:03;18.80;99.90
43987;DHT22;29650;47.378;8.300;2022-08-20T07:20:30;18.90;99.90
43987;DHT22;29650;47.378;8.300;2022-08-20T07:22:57;18.90;99.90
43987;DHT22;29650;47.378;8.300;2022-08-20T07:25:26;18.90;99.90
43987;DHT22;29650;47.378;8.300;2022-08-20T07:27:57;19.10;99.90
43987;DHT22;29650;47.378;8.300;2022-08-20T07:30:25;19.20;99.90
43987;DHT22;29650;47.378;8.300;2022-08-20T07:33:09;19.30;99.90
43987;DHT22;29650;47.378;8.300;2022-08-20T07:35:37;19.20;99.90
43987;DHT22;29650;47.378;8.300;2022-08-20T07:38:04;19.40;99.90
43987;DHT22;29650;47.378;8.300;2022-08-20T07:40:33;19.30;99.90
43987;DHT22;29650;47.378;8.300;2022-08-20T07:43:00;19.30;99.90
43987;DHT22;29650;47.378;8.300;2022-08-20T07:45:28;19.30;99.90
43987;DHT22;29650;47.378;8.300;2022-08-20T07:48:00;19.40;99.90
43987;DHT22;29650;47.378;8.300;2022-08-20T07:50:31;19.40;99.90
43987;DHT22;29650;47.378;8.300;2022-08-20T07:52:58;19.30;99.90
43987;DHT22;29650;47.378;8.300;2022-08-20T07:55:25;19.40;99.90
43987;DHT22;29650;47.378;8.300;2022-08-20T07:57:54;19.30;99.90
43987;DHT22;29650;47.378;8.300;2022-08-20T08:00:23;19.30;99.90
43987;DHT22;29650;47.378;8.300;2022-08-20T08:02:50;19.30;99.90
43987;DHT22;29650;47.378;8.300;2022-08-20T08:05:16;19.30;99.90
43987;DHT22;29650;47.378;8.300;2022-08-20T08:07:43;19.30;99.90
43987;DHT22;29650;47.378;8.300;2022-08-20T08:10:11;19.30;99.90
43987;DHT22;29650;47.378;8.300;2022-08-20T08:12:39;19.30;99.90
43987;DHT22;29650;47.378;8.300;2022-08-20T08:15:09;19.30;99.90
43987;DHT22;29650;47.378;8.300;2022-08-20T08:17:36;19.40;99.90
43987;DHT22;29650;47.378;8.300;2022-08-20T08:20:03;19.40;99.90
43987;DHT22;29650;47.378;8.300;2022-08-20T08:22:30;19.50;99.90
43987;DHT22;29650;47.378;8.300;2022-08-20T08:24:57;19.50;99.90
43987;DHT22;29650;47.378;8.300;2022-08-20T08:27:26;19.60;99.90
43987;DHT22;29650;47.378;8.300;2022-08-20T08:29:57;19.60;99.90
43987;DHT22;29650;47.378;8.300;2022-08-20T08:32:25;19.70;99.90
43987;DHT22;29650;47.378;8.300;2022-08-20T08:34:51;19.70;99.90
43987;DHT22;29650;47.378;8.300;2022-08-20T08:37:18;19.80;99.90
43987;DHT22;29650;47.378;8.300;2022-08-20T08:39:45;19.80;99.90
43987;DHT22;29650;47.378;8.300;2022-08-20T08:42:16;19.80;99.90
43987;DHT22;29650;47.378;8.300;2022-08-20T08:44:46;19.70;99.90
43987;DHT22;29650;47.378;8.300;2022-08-20T08:47:17;19.80;99.90
43987;DHT22;29650;47.378;8.300;2022-08-20T08:49:47;19.90;99.90
43987;DHT22;29650;47.378;8.300;2022-08-20T08:52:15;20.00;99.90
43987;DHT22;29650;47.378;8.300;2022-08-20T08:54:45;20.20;99.90
43987;DHT22;29650;47.378;8.300;2022-08-20T08:57:11;20.00;99.90
43987;DHT22;29650;47.378;8.300;2022-08-20T08:59:38;20.10;99.90
43987;DHT22;29650;47.378;8.300;2022-08-20T09:02:06;20.00;99.90
43987;DHT22;29650;47.378;8.300;2022-08-20T09:04:34;19.90;99.90
43987;DHT22;29650;47.378;8.300;2022-08-20T09:07:03;19.90;99.90
43987;DHT22;29650;47.378;8.300;2022-08-20T09:09:31;20.00;99.90
43987;DHT22;29650;47.378;8.300;2022-08-20T09:12:01;20.20;99.90
43987;DHT22;29650;47.378;8.300;2022-08-20T09:14:29;19.80;99.90
43987;DHT22;29650;47.378;8.300;2022-08-20T09:16:55;19.80;99.90
43987;DHT22;29650;47.378;8.300;2022-08-20T09:19:22;19.90;99.90
43987;DHT22;29650;47.378;8.300;2022-08-20T09:21:49;20.00;99.90
43987;DHT22;29650;47.378;8.300;2022-08-20T09:24:17;20.10;99.90
43987;DHT22;29650;47.378;8.300;2022-08-20T09:26:44;19.90;99.90
43987;DHT22;29650;47.378;8.300;2022-08-20T09:29:10;19.80;99.90
43987;DHT22;29650;47.378;8.300;2022-08-20T09:31:37;20.00;99.90
43987;DHT22;29650;47.378;8.300;2022-08-20T09:34:04;19.90;99.90
43987;DHT22;29650;47.378;8.300;2022-08-20T09:36:31;19.80;99.90
43987;DHT22;29650;47.378;8.300;2022-08-20T09:38:58;19.90;99.90
43987;DHT22;29650;47.378;8.300;2022-08-20T09:41:26;20.10;99.90
43987;DHT22;29650;47.378;8.300;2022-08-20T09:43:52;20.20;99.90
43987;DHT22;29650;47.378;8.300;2022-08-20T09:46:19;20.20;99.90
43987;DHT22;29650;47.378;8.300;2022-08-20T09:48:46;19.80;99.90
43987;DHT22;29650;47.378;8.300;2022-08-20T09:51:13;19.90;99.90
43987;DHT22;29650;47.378;8.300;2022-08-20T09:53:39;20.00;99.90
43987;DHT22;29650;47.378;8.300;2022-08-20T09:56:06;20.00;99.90
43987;DHT22;29650;47.378;8.300;2022-08-20T09:58:36;20.20;99.90
43987;DHT22;29650;47.378;8.300;2022-08-20T10:01:06;20.10;99.90
43987;DHT22;29650;47.378;8.300;2022-08-20T10:03:33;20.30;99.90
43987;DHT22;29650;47.378;8.300;2022-08-20T10:06:00;20.50;99.90
43987;DHT22;29650;47.378;8.300;2022-08-20T10:08:27;20.50;99.90
43987;DHT22;29650;47.378;8.300;2022-08-20T10:10:54;20.70;99.90
43987;DHT22;29650;47.378;8.300;2022-08-20T10:13:20;20.50;99.90
43987;DHT22;29650;47.378;8.300;2022-08-20T10:15:48;20.60;99.90
43987;DHT22;29650;47.378;8.300;2022-08-20T10:18:15;20.50;99.90
43987;DHT22;29650;47.378;8.300;2022-08-20T10:20:42;21.10;99.90
43987;DHT22;29650;47.378;8.300;2022-08-20T10:23:09;20.70;99.90
43987;DHT22;29650;47.378;8.300;2022-08-20T10:25:35;20.30;99.90
43987;DHT22;29650;47.378;8.300;2022-08-20T10:28:02;20.20;99.90
43987;DHT22;29650;47.378;8.300;2022-08-20T10:30:30;20.60;99.90
43987;DHT22;29650;47.378;8.300;2022-08-20T10:32:58;20.60;99.90
43987;DHT22;29650;47.378;8.300;2022-08-20T10:35:25;20.80;99.90
43987;DHT22;29650;47.378;8.300;2022-08-20T10:37:51;20.50;99.90
43987;DHT22;29650;47.378;8.300;2022-08-20T10:40:18;21.20;99.90
43987;DHT22;29650;47.378;8.300;2022-08-20T10:42:45;21.50;99.90
43987;DHT22;29650;47.378;8.300;2022-08-20T10:45:12;21.40;99.90
43987;DHT22;29650;47.378;8.300;2022-08-20T10:47:39;21.50;99.90
43987;DHT22;29650;47.378;8.300;2022-08-20T10:50:09;21.60;99.90
43987;DHT22;29650;47.378;8.300;2022-08-20T10:52:36;21.80;99.90
43987;DHT22;29650;47.378;8.300;2022-08-20T10:55:03;21.60;99.90
43987;DHT22;29650;47.378;8.300;2022-08-20T10:57:30;22.00;99.90
43987;DHT22;29650;47.378;8.300;2022-08-20T10:59:58;21.80;99.90
43987;DHT22;29650;47.378;8.300;2022-08-20T11:02:25;21.80;99.90
43987;DHT22;29650;47.378;8.300;2022-08-20T11:04:52;21.90;99.90
43987;DHT22;29650;47.378;8.300;2022-08-20T11:07:23;22.00;99.90
43987;DHT22;29650;47.378;8.300;2022-08-20T11:09:50;22.00;99.90
43987;DHT22;29650;47.378;8.300;2022-08-20T11:12:17;22.10;99.90
43987;DHT22;29650;47.378;8.300;2022-08-20T11:14:45;22.10;99.90
43987;DHT22;29650;47.378;8.300;2022-08-20T11:17:12;22.30;99.90
43987;DHT22;29650;47.378;8.300;2022-08-20T11:19:39;22.20;99.90
43987;DHT22;29650;47.378;8.300;2022-08-20T11:22:06;22.30;99.90
43987;DHT22;29650;47.378;8.300;2022-08-20T11:24:34;22.60;99.90
43987;DHT22;29650;47.378;8.300;2022-08-20T11:27:01;22.40;99.90
43987;DHT22;29650;47.378;8.300;2022-08-20T11:29:28;22.40;99.90
43987;DHT22;29650;47.378;8.300;2022-08-20T11:31:54;22.90;99.90
43987;DHT22;29650;47.378;8.300;2022-08-20T11:34:21;23.10;99.90
43987;DHT22;29650;47.378;8.300;2022-08-20T11:36:48;23.20;99.90
43987;DHT22;29650;47.378;8.300;2022-08-20T11:39:15;23.30;99.90
43987;DHT22;29650;47.378;8.300;2022-08-20T11:41:43;23.80;99.90
43987;DHT22;29650;47.378;8.300;2022-08-20T11:44:09;22.70;99.90
43987;DHT22;29650;47.378;8.300;2022-08-20T11:46:36;22.60;99.90
43987;DHT22;29650;47.378;8.300;2022-08-20T11:49:03;22.90;99.90
43987;DHT22;29650;47.378;8.300;2022-08-20T11:51:30;23.40;99.90
43987;DHT22;29650;47.378;8.300;2022-08-20T11:53:57;23.50;99.90
43987;DHT22;29650;47.378;8.300;2022-08-20T11:56:24;23.60;99.90
43987;DHT22;29650;47.378;8.300;2022-08-20T11:58:52;24.20;99.90
43987;DHT22;29650;47.378;8.300;2022-08-20T12:01:19;23.70;99.90
43987;DHT22;29650;47.378;8.300;2022-08-20T12:03:45;24.10;99.90
43987;DHT22;29650;47.378;8.300;2022-08-20T12:06:12;24.40;99.90
43987;DHT22;29650;47.378;8.300;2022-08-20T12:08:39;24.30;99.90
43987;DHT22;29650;47.378;8.300;2022-08-20T12:11:06;24.10;99.60
43987;DHT22;29650;47.378;8.300;2022-08-20T12:13:33;24.00;99.90
43987;DHT22;29650;47.378;8.300;2022-08-20T12:16:02;24.00;99.90
43987;DHT22;29650;47.378;8.300;2022-08-20T12:18:29;23.90;98.90
43987;DHT22;29650;47.378;8.300;2022-08-20T12:20:56;23.10;97.90
43987;DHT22;29650;47.378;8.300;2022-08-20T12:23:22;23.30;99.60
43987;DHT22;29650;47.378;8.300;2022-08-20T12:25:49;23.60;99.90
43987;DHT22;29650;47.378;8.300;2022-08-20T12:28:16;23.90;98.90
43987;DHT22;29650;47.378;8.300;2022-08-20T12:30:43;23.90;99.70
43987;DHT22;29650;47.378;8.300;2022-08-20T12:33:11;23.70;98.50
43987;DHT22;29650;47.378;8.300;2022-08-20T12:35:38;23.30;98.50
43987;DHT22;29650;47.378;8.300;2022-08-20T12:38:05;23.50;99.90
43987;DHT22;29650;47.378;8.300;2022-08-20T12:40:32;23.40;99.00
43987;DHT22;29650;47.378;8.300;2022-08-20T12:42:59;23.40;99.40
43987;DHT22;29650;47.378;8.300;2022-08-20T12:45:26;23.70;99.90
43987;DHT22;29650;47.378;8.300;2022-08-20T12:47:58;23.80;99.70
43987;DHT22;29650;47.378;8.300;2022-08-20T12:50:26;23.40;97.90
43987;DHT22;29650;47.378;8.300;2022-08-20T12:52:53;23.40;97.10
43987;DHT22;29650;47.378;8.300;2022-08-20T12:55:19;23.00;96.80
43987;DHT22;29650;47.378;8.300;2022-08-20T12:57:47;22.90;97.50
43987;DHT22;29650;47.378;8.300;2022-08-20T13:00:16;22.60;98.20
43987;DHT22;29650;47.378;8.300;2022-08-20T13:02:44;23.30;99.90
43987;DHT22;29650;47.378;8.300;2022-08-20T13:05:12;23.50;98.90
43987;DHT22;29650;47.378;8.300;2022-08-20T13:07:40;23.20;96.50
43987;DHT22;29650;47.378;8.300;2022-08-20T13:10:14;23.60;98.00
43987;DHT22;29650;47.378;8.300;2022-08-20T13:12:41;23.60;97.20
43987;DHT22;29650;47.378;8.300;2022-08-20T13:15:08;23.70;95.90
43987;DHT22;29650;47.378;8.300;2022-08-20T13:17:35;24.20;95.90
43987;DHT22;29650;47.378;8.300;2022-08-20T13:20:02;24.60;95.10
43987;DHT22;29650;47.378;8.300;2022-08-20T13:22:30;24.10;93.90
43987;DHT22;29650;47.378;8.300;2022-08-20T13:24:58;24.00;94.70
43987;DHT22;29650;47.378;8.300;2022-08-20T13:27:24;23.90;94.60
43987;DHT22;29650;47.378;8.300;2022-08-20T13:29:52;24.10;94.10
43987;DHT22;29650;47.378;8.300;2022-08-20T13:32:21;24.70;94.70
43987;DHT22;29650;47.378;8.300;2022-08-20T13:34:47;25.20;93.70
43987;DHT22;29650;47.378;8.300;2022-08-20T13:37:15;25.50;93.10
43987;DHT22;29650;47.378;8.300;2022-08-20T13:39:43;25.80;92.10
43987;DHT22;29650;47.378;8.300;2022-08-20T13:42:11;26.10;91.30
43987;DHT22;29650;47.378;8.300;2022-08-20T13:44:38;25.90;92.00
43987;DHT22;29650;47.378;8.300;2022-08-20T13:47:14;26.40;91.00
43987;DHT22;29650;47.378;8.300;2022-08-20T13:49:42;26.00;89.50
43987;DHT22;29650;47.378;8.300;2022-08-20T13:52:08;26.10;89.80
43987;DHT22;29650;47.378;8.300;2022-08-20T13:54:35;25.90;89.60
43987;DHT22;29650;47.378;8.300;2022-08-20T13:57:03;25.70;90.30
43987;DHT22;29650;47.378;8.300;2022-08-20T13:59:31;25.30;90.20
43987;DHT22;29650;47.378;8.300;2022-08-20T14:01:59;25.20;90.80
43987;DHT22;29650;47.378;8.300;2022-08-20T14:04:26;25.00;90.40
43987;DHT22;29650;47.378;8.300;2022-08-20T14:06:53;25.20;90.20
43987;DHT22;29650;47.378;8.300;2022-08-20T14:09:19;25.10;90.00
43987;DHT22;29650;47.378;8.300;2022-08-20T14:11:48;24.50;91.10
43987;DHT22;29650;47.378;8.300;2022-08-20T14:14:15;24.70;92.30
43987;DHT22;29650;47.378;8.300;2022-08-20T14:16:43;25.00;91.70
43987;DHT22;29650;47.378;8.300;2022-08-20T14:19:10;25.00;90.30
43987;DHT22;29650;47.378;8.300;2022-08-20T14:21:36;25.30;91.10
43987;DHT22;29650;47.378;8.300;2022-08-20T14:24:03;25.60;90.50
43987;DHT22;29650;47.378;8.300;2022-08-20T14:26:30;25.80;91.20
43987;DHT22;29650;47.378;8.300;2022-08-20T14:28:56;26.00;90.60
43987;DHT22;29650;47.378;8.300;2022-08-20T14:31:23;26.10;90.50
43987;DHT22;29650;47.378;8.300;2022-08-20T14:33:51;26.30;89.70
43987;DHT22;29650;47.378;8.300;2022-08-20T14:36:18;26.00;89.70
43987;DHT22;29650;47.378;8.300;2022-08-20T14:38:45;25.80;87.70
43987;DHT22;29650;47.378;8.300;2022-08-20T14:41:11;25.50;89.00
43987;DHT22;29650;47.378;8.300;2022-08-20T14:43:38;26.40;90.20
43987;DHT22;29650;47.378;8.300;2022-08-20T14:46:05;26.40;89.10
43987;DHT22;29650;47.378;8.300;2022-08-20T14:48:31;25.30;87.10
43987;DHT22;29650;47.378;8.300;2022-08-20T14:50:59;25.00;89.80
43987;DHT22;29650;47.378;8.300;2022-08-20T14:53:27;24.80;90.20
43987;DHT22;29650;47.378;8.300;2022-08-20T14:55:54;24.80;90.00
43987;DHT22;29650;47.378;8.300;2022-08-20T14:58:20;24.70;90.70
43987;DHT22;29650;47.378;8.300;2022-08-20T15:00:47;24.70;90.80
43987;DHT22;29650;47.378;8.300;2022-08-20T15:03:14;24.40;91.30
43987;DHT22;29650;47.378;8.300;2022-08-20T15:05:40;24.30;90.70
43987;DHT22;29650;47.378;8.300;2022-08-20T15:08:08;24.30;90.70
43987;DHT22;29650;47.378;8.300;2022-08-20T15:10:35;24.50;90.40
43987;DHT22;29650;47.378;8.300;2022-08-20T15:13:03;24.60;89.90
43987;DHT22;29650;47.378;8.300;2022-08-20T15:15:29;25.00;90.40
43987;DHT22;29650;47.378;8.300;2022-08-20T15:17:57;25.20;90.70
43987;DHT22;29650;47.378;8.300;2022-08-20T15:20:25;25.10;91.10
43987;DHT22;29650;47.378;8.300;2022-08-20T15:22:53;25.20;92.90
43987;DHT22;29650;47.378;8.300;2022-08-20T15:25:22;24.90;94.00
43987;DHT22;29650;47.378;8.300;2022-08-20T15:27:49;24.70;96.80
43987;DHT22;29650;47.378;8.300;2022-08-20T15:30:17;24.50;98.50
43987;DHT22;29650;47.378;8.300;2022-08-20T15:32:44;24.40;99.50